Time;durP1;ratioP1;P1;durP2;ratioP2;P2;SDS_P1;SDS_P2;PMS_P1;PMS_P2;Temp;Humidity;BMP_temperature;BMP_pressure;BME280_temperature;BME280_humidity;BME280_pressure;Samples;Min_cycle;Max_cycle;Signal;HPM_P1;HPM_P2
2023/08/25 00:01:34;;;;;;;10.23;9.53;;;19.70;99.90;;;;;;5026609;28;20498;-58
2023/08/25 00:04:02;;;;;;;10.20;9.50;;;19.70;99.90;;;;;;5026837;28;20490;-58
2023/08/25 00:06:30;;;;;;;9.70;9.03;;;19.70;99.90;;;;;;5024962;28;20490;-58
2023/08/25 00:08:58;;;;;;;10.87;9.87;;;19.70;99.90;;;;;;5029952;28;20477;-58
2023/08/25 00:11:26;;;;;;;10.23;9.53;;;19.70;99.90;;;;;;5016698;28;20471;-57
2023/08/25 00:13:54;;;;;;;10.37;9.57;;;19.80;99.90;;;;;;5010047;28;20491;-58
2023/08/25 00:16:22;;;;;;;10.50;9.70;;;19.80;99.90;;;;;;5021164;28;20539;-58
2023/08/25 00:18:52;;;;;;;11.70;10.80;;;19.80;99.90;;;;;;5031569;28;20491;-58
2023/08/25 00:21:20;;;;;;;10.50;9.70;;;19.80;99.90;;;;;;5022507;28;20508;-58
2023/08/25 00:23:47;;;;;;;10.80;10.10;;;19.80;99.90;;;;;;5023595;28;20577;-58
2023/08/25 00:26:16;;;;;;;11.30;10.50;;;19.80;99.90;;;;;;5021658;28;20881;-57
2023/08/25 00:28:43;;;;;;;11.87;10.97;;;19.80;99.90;;;;;;5018546;28;20474;-57
2023/08/25 00:31:12;;;;;;;11.37;10.50;;;19.80;99.90;;;;;;5019314;28;20929;-56
2023/08/25 00:33:48;;;;;;;11.87;10.90;;;19.80;99.90;;;;;;5019412;28;21079;-58
2023/08/25 00:36:18;;;;;;;11.73;10.83;;;19.70;99.90;;;;;;5018924;28;20576;-58
2023/08/25 00:38:46;;;;;;;11.83;10.90;;;19.70;99.90;;;;;;5025063;28;20483;-58
2023/08/25 00:41:14;;;;;;;11.00;10.20;;;19.70;99.90;;;;;;5022767;28;21032;-58
2023/08/25 00:43:42;;;;;;;13.20;11.53;;;19.70;99.90;;;;;;5021678;28;20533;-58
2023/08/25 00:46:11;;;;;;;11.40;10.50;;;19.80;99.90;;;;;;5025898;28;20491;-58
2023/08/25 00:48:40;;;;;;;12.20;11.30;;;19.70;99.90;;;;;;5027341;28;20463;-58
2023/08/25 00:51:09;;;;;;;11.33;10.43;;;19.70;99.90;;;;;;5028018;28;20476;-58
2023/08/25 00:53:39;;;;;;;11.07;10.37;;;19.70;99.90;;;;;;5022433;28;20558;-58
2023/08/25 00:56:09;;;;;;;12.10;11.27;;;19.70;99.90;;;;;;5023769;28;20519;-58
2023/08/25 00:58:37;;;;;;;12.33;11.37;;;19.70;99.90;;;;;;5024119;28;20475;-58
2023/08/25 01:01:06;;;;;;;12.20;11.20;;;19.70;99.90;;;;;;5025936;28;20610;-58
2023/08/25 01:03:38;;;;;;;11.63;10.83;;;19.70;99.90;;;;;;5011474;28;20506;-57
2023/08/25 01:06:06;;;;;;;11.67;10.77;;;19.70;99.90;;;;;;5021899;28;20568;-57
2023/08/25 01:08:34;;;;;;;11.93;11.13;;;19.70;99.90;;;;;;5025972;28;20988;-57
2023/08/25 01:11:16;;;;;;;12.23;11.30;;;19.70;99.90;;;;;;5012444;28;20502;-58
2023/08/25 01:13:54;;;;;;;12.27;11.30;;;19.70;99.90;;;;;;5024040;28;20586;-58
2023/08/25 01:16:30;;;;;;;11.77;10.97;;;19.60;99.90;;;;;;5024576;28;21085;-57
2023/08/25 01:19:00;;;;;;;12.37;11.47;;;19.60;99.90;;;;;;5030794;28;21010;-56
2023/08/25 01:21:29;;;;;;;12.47;11.63;;;19.60;99.90;;;;;;5022502;28;20562;-57
2023/08/25 01:24:06;;;;;;;11.63;10.87;;;19.60;99.90;;;;;;5028935;28;20589;-58
2023/08/25 01:26:37;;;;;;;11.33;10.53;;;19.60;99.90;;;;;;5018111;28;20932;-58
2023/08/25 01:29:05;;;;;;;12.20;11.40;;;19.60;99.90;;;;;;5019100;28;20466;-57
2023/08/25 01:31:32;;;;;;;12.30;11.40;;;19.60;99.90;;;;;;5019396;28;20553;-58
2023/08/25 01:34:01;;;;;;;12.70;11.70;;;19.50;99.90;;;;;;5022513;28;21405;-58
2023/08/25 01:36:38;;;;;;;12.33;11.43;;;19.50;99.90;;;;;;5026783;28;20847;-58
2023/08/25 01:39:11;;;;;;;12.43;11.53;;;19.50;99.90;;;;;;5019897;28;20494;-57
2023/08/25 01:41:45;;;;;;;12.20;11.30;;;19.50;99.90;;;;;;5022831;28;20471;-57
2023/08/25 01:44:15;;;;;;;13.03;12.03;;;19.50;99.90;;;;;;5026347;28;20487;-58
2023/08/25 01:46:45;;;;;;;12.90;11.90;;;19.50;99.90;;;;;;5026364;28;20581;-58
2023/08/25 01:49:14;;;;;;;14.13;12.93;;;19.60;99.90;;;;;;5024750;28;20558;-57
2023/08/25 01:51:43;;;;;;;14.30;13.10;;;19.60;99.90;;;;;;5025991;28;21065;-57
2023/08/25 01:54:13;;;;;;;15.13;13.87;;;19.60;99.90;;;;;;5033375;28;20526;-58
2023/08/25 01:56:42;;;;;;;14.90;13.80;;;19.70;99.90;;;;;;5022206;28;20487;-58
2023/08/25 01:59:10;;;;;;;17.13;15.73;;;19.70;99.90;;;;;;5019341;28;21038;-58
2023/08/25 02:01:39;;;;;;;16.43;15.03;;;19.70;99.90;;;;;;5025036;28;20881;-58
2023/08/25 02:04:07;;;;;;;15.90;14.67;;;19.70;99.90;;;;;;5027011;28;21047;-57
2023/08/25 02:06:36;;;;;;;15.70;14.50;;;19.70;99.90;;;;;;5026331;28;20522;-57
2023/08/25 02:09:05;;;;;;;15.53;14.37;;;19.70;99.90;;;;;;5030453;28;20468;-58
2023/08/25 02:11:33;;;;;;;18.03;16.50;;;19.70;99.90;;;;;;5025041;28;20479;-57
2023/08/25 02:14:02;;;;;;;17.47;15.97;;;19.70;99.90;;;;;;5018408;28;20494;-57
2023/08/25 02:16:30;;;;;;;18.10;16.90;;;19.70;99.90;;;;;;5018787;28;20585;-58
2023/08/25 02:18:58;;;;;;;17.00;15.70;;;19.70;99.90;;;;;;5031745;28;20466;-58
2023/08/25 02:21:26;;;;;;;18.23;16.83;;;19.70;99.90;;;;;;5024014;28;21030;-58
2023/08/25 02:23:55;;;;;;;17.90;16.50;;;19.70;99.90;;;;;;5018969;28;20617;-58
2023/08/25 02:26:24;;;;;;;17.70;16.20;;;19.70;99.90;;;;;;5015649;28;20504;-58
2023/08/25 02:28:53;;;;;;;17.83;16.33;;;19.70;99.90;;;;;;5008652;28;20941;-58
2023/08/25 02:31:22;;;;;;;17.70;16.23;;;19.70;99.90;;;;;;5011789;28;20476;-57
2023/08/25 02:33:50;;;;;;;18.40;16.90;;;19.60;99.90;;;;;;5014645;28;20566;-57
2023/08/25 02:36:18;;;;;;;17.70;16.27;;;19.60;99.90;;;;;;5024248;28;20517;-57
2023/08/25 02:38:46;;;;;;;19.23;17.63;;;19.60;99.90;;;;;;5029601;28;20622;-58
2023/08/25 02:41:14;;;;;;;20.37;18.80;;;19.60;99.90;;;;;;5017669;28;20522;-57
2023/08/25 02:43:42;;;;;;;19.67;17.87;;;19.60;99.90;;;;;;5021497;28;20838;-58
2023/08/25 02:46:11;;;;;;;17.50;16.03;;;19.60;99.90;;;;;;5014565;28;20487;-57
2023/08/25 02:48:40;;;;;;;19.57;18.00;;;19.60;99.90;;;;;;5024633;28;21129;-58
2023/08/25 02:51:08;;;;;;;20.57;18.43;;;19.50;99.90;;;;;;5012313;28;20586;-58
2023/08/25 02:53:36;;;;;;;19.40;17.90;;;19.50;99.90;;;;;;5014224;28;20672;-58
2023/08/25 02:56:04;;;;;;;19.60;17.87;;;19.50;99.90;;;;;;5025299;28;21209;-58
2023/08/25 02:58:32;;;;;;;20.43;18.73;;;19.50;99.90;;;;;;5018557;28;20574;-59
2023/08/25 03:01:00;;;;;;;20.57;18.87;;;19.40;99.90;;;;;;5022608;28;20840;-58
2023/08/25 03:03:28;;;;;;;20.30;18.50;;;19.40;99.90;;;;;;5018457;28;20587;-58
2023/08/25 03:06:00;;;;;;;20.17;18.67;;;19.40;99.90;;;;;;5021505;28;20550;-58
2023/08/25 03:08:28;;;;;;;21.80;19.97;;;19.50;99.90;;;;;;5027335;28;20475;-57
2023/08/25 03:10:56;;;;;;;19.20;17.63;;;19.40;99.90;;;;;;5017225;28;20623;-58
2023/08/25 03:13:24;;;;;;;20.37;18.67;;;19.40;99.90;;;;;;5025356;28;20487;-58
2023/08/25 03:15:54;;;;;;;20.80;18.70;;;19.40;99.90;;;;;;5019237;28;20565;-57
2023/08/25 03:18:23;;;;;;;20.47;18.67;;;19.40;99.90;;;;;;5025953;28;20499;-58
2023/08/25 03:20:51;;;;;;;20.30;18.63;;;19.40;99.90;;;;;;5028652;28;21294;-58
2023/08/25 03:23:21;;;;;;;21.73;19.83;;;19.40;99.90;;;;;;5027626;28;20543;-58
2023/08/25 03:25:49;;;;;;;22.30;20.60;;;19.40;99.90;;;;;;5016600;28;20566;-58
2023/08/25 03:28:17;;;;;;;22.17;19.93;;;19.40;99.90;;;;;;5006754;28;20565;-57
2023/08/25 03:30:45;;;;;;;22.50;20.57;;;19.40;99.90;;;;;;5010077;28;21042;-57
2023/08/25 03:33:13;;;;;;;23.23;21.43;;;19.40;99.90;;;;;;5000557;28;20484;-57
2023/08/25 03:35:41;;;;;;;21.80;19.80;;;19.30;99.90;;;;;;5016031;28;20517;-58
2023/08/25 03:38:09;;;;;;;20.90;19.13;;;19.40;99.90;;;;;;5015209;28;21051;-57
2023/08/25 03:40:38;;;;;;;21.80;19.80;;;19.40;99.90;;;;;;5025371;28;20859;-58
2023/08/25 03:43:06;;;;;;;20.60;18.70;;;19.30;99.90;;;;;;5023232;28;21058;-57
2023/08/25 03:45:36;;;;;;;20.77;18.97;;;19.30;99.90;;;;;;5020216;28;21041;-58
2023/08/25 03:48:04;;;;;;;22.50;20.50;;;19.30;99.90;;;;;;5025702;28;20553;-57
2023/08/25 03:50:33;;;;;;;22.77;20.87;;;19.30;99.90;;;;;;5016958;28;20473;-58
2023/08/25 03:53:01;;;;;;;22.50;20.70;;;19.30;99.90;;;;;;5014879;28;20972;-58
2023/08/25 03:55:29;;;;;;;21.67;19.77;;;19.30;99.90;;;;;;5014168;28;20482;-58
2023/08/25 03:57:58;;;;;;;23.37;21.13;;;19.30;99.90;;;;;;5021165;28;20475;-58
2023/08/25 04:00:26;;;;;;;23.50;21.50;;;19.20;99.90;;;;;;5022410;28;21008;-58
2023/08/25 04:02:54;;;;;;;22.43;20.60;;;19.20;99.90;;;;;;5019400;28;20975;-58
2023/08/25 04:05:22;;;;;;;22.60;20.70;;;19.20;99.90;;;;;;5016343;28;20898;-56
2023/08/25 04:07:50;;;;;;;23.53;21.47;;;19.20;99.90;;;;;;5016757;28;20911;-57
2023/08/25 04:10:19;;;;;;;23.17;21.20;;;19.20;99.90;;;;;;5029912;28;20484;-57
2023/08/25 04:12:47;;;;;;;22.60;20.60;;;19.20;99.90;;;;;;5022507;28;20560;-58
2023/08/25 04:15:16;;;;;;;23.80;21.77;;;19.10;99.90;;;;;;5020415;28;20622;-58
2023/08/25 04:17:44;;;;;;;22.80;20.63;;;19.10;99.90;;;;;;5026671;28;20477;-58
2023/08/25 04:20:14;;;;;;;21.57;19.73;;;19.10;99.90;;;;;;5020220;28;20606;-58
2023/08/25 04:22:42;;;;;;;24.17;22.10;;;19.10;99.90;;;;;;5022616;28;20466;-58
2023/08/25 04:25:10;;;;;;;21.03;19.23;;;19.10;99.90;;;;;;5031340;28;21146;-58
2023/08/25 04:27:38;;;;;;;23.33;21.30;;;19.10;99.90;;;;;;5015161;28;20538;-58
2023/08/25 04:30:07;;;;;;;24.17;22.07;;;19.00;99.90;;;;;;5015511;28;20479;-58
2023/08/25 04:32:36;;;;;;;24.47;22.27;;;19.00;99.90;;;;;;5026295;28;20549;-58
2023/08/25 04:35:05;;;;;;;23.40;21.40;;;19.00;99.90;;;;;;5022008;28;20525;-58
2023/08/25 04:37:33;;;;;;;25.10;22.70;;;19.00;99.90;;;;;;5005752;28;20495;-57
2023/08/25 04:40:01;;;;;;;22.37;20.47;;;19.00;99.90;;;;;;5019007;28;20595;-58
2023/08/25 04:42:29;;;;;;;24.93;22.57;;;19.00;99.90;;;;;;5007794;28;20499;-56
2023/08/25 04:44:57;;;;;;;25.47;22.93;;;19.00;99.90;;;;;;5013405;28;20618;-58
2023/08/25 04:47:25;;;;;;;23.00;20.77;;;19.00;99.90;;;;;;5009247;28;20526;-57
2023/08/25 04:49:57;;;;;;;25.70;23.37;;;19.00;99.90;;;;;;5016254;28;20478;-58
2023/08/25 04:52:25;;;;;;;24.17;21.97;;;19.10;99.90;;;;;;5020464;28;20467;-58
2023/08/25 04:54:53;;;;;;;24.23;22.07;;;19.10;99.90;;;;;;5027527;28;21015;-56
2023/08/25 04:57:21;;;;;;;25.73;23.20;;;19.10;99.90;;;;;;5021002;28;20462;-57
2023/08/25 04:59:49;;;;;;;24.70;22.60;;;19.10;99.90;;;;;;5020161;28;20470;-58
2023/08/25 05:02:18;;;;;;;21.60;19.60;;;19.10;99.90;;;;;;5013188;28;21061;-58
2023/08/25 05:04:46;;;;;;;25.40;23.03;;;19.10;99.90;;;;;;5014884;28;20624;-57
2023/08/25 05:07:15;;;;;;;25.47;23.00;;;19.20;99.90;;;;;;5008961;28;20957;-58
2023/08/25 05:09:43;;;;;;;25.90;23.40;;;19.20;99.90;;;;;;5020307;28;20593;-58
2023/08/25 05:12:11;;;;;;;27.60;24.97;;;19.30;99.90;;;;;;5017519;28;20467;-58
2023/08/25 05:14:39;;;;;;;27.77;25.27;;;19.30;99.90;;;;;;5005344;28;20579;-57
2023/08/25 05:17:07;;;;;;;25.73;23.43;;;19.30;99.90;;;;;;5001179;28;20507;-57
2023/08/25 05:19:35;;;;;;;28.40;25.73;;;19.30;99.90;;;;;;5002257;28;20479;-57
2023/08/25 05:22:03;;;;;;;31.07;27.90;;;19.30;99.90;;;;;;5012531;28;20527;-57
2023/08/25 05:24:33;;;;;;;27.57;25.07;;;19.40;99.90;;;;;;5006312;28;20494;-58
2023/08/25 05:27:01;;;;;;;32.00;28.87;;;19.40;99.90;;;;;;5010229;28;20467;-57
2023/08/25 05:29:29;;;;;;;29.30;26.40;;;19.50;99.90;;;;;;5004435;28;20471;-58
2023/08/25 05:31:58;;;;;;;27.50;24.77;;;19.50;99.90;;;;;;5020083;28;21182;-58
2023/08/25 05:34:27;;;;;;;25.40;23.10;;;19.50;99.90;;;;;;5006771;28;20494;-57
2023/08/25 05:36:55;;;;;;;30.57;27.50;;;19.50;99.90;;;;;;4992221;28;20618;-57
2023/08/25 05:39:23;;;;;;;31.13;28.00;;;19.60;99.90;;;;;;5008256;28;20570;-58
2023/08/25 05:41:52;;;;;;;33.67;30.27;;;19.60;99.90;;;;;;5001572;28;21113;-58
2023/08/25 05:44:20;;;;;;;32.50;29.40;;;19.60;99.90;;;;;;5013203;28;20499;-57
2023/08/25 05:46:48;;;;;;;30.63;27.63;;;19.60;99.90;;;;;;5015495;28;20513;-58
2023/08/25 05:49:16;;;;;;;31.60;28.40;;;19.70;99.90;;;;;;5024301;28;20574;-59
2023/08/25 05:51:46;;;;;;;28.73;25.87;;;19.70;99.90;;;;;;5026721;28;20566;-57
2023/08/25 05:54:13;;;;;;;33.03;29.73;;;19.70;99.90;;;;;;5017339;28;20499;-58
2023/08/25 05:56:42;;;;;;;30.07;27.37;;;19.70;99.90;;;;;;5026736;28;20605;-58
2023/08/25 05:59:11;;;;;;;32.03;29.03;;;19.80;99.90;;;;;;5022396;28;21136;-58
2023/08/25 06:01:40;;;;;;;28.53;25.73;;;19.80;99.90;;;;;;5020819;28;20681;-59
2023/08/25 06:04:08;;;;;;;30.97;27.97;;;19.80;99.90;;;;;;4999745;28;20514;-58
2023/08/25 06:06:38;;;;;;;30.17;27.00;;;19.90;99.90;;;;;;5024596;28;21319;-59
2023/08/25 06:09:08;;;;;;;30.20;27.17;;;19.90;99.90;;;;;;5021416;28;20478;-58
2023/08/25 06:11:36;;;;;;;27.07;24.60;;;19.90;99.90;;;;;;5015700;28;20479;-58
2023/08/25 06:14:04;;;;;;;29.97;27.07;;;19.90;99.90;;;;;;5011098;28;20589;-58
2023/08/25 06:16:34;;;;;;;28.13;25.57;;;20.00;99.90;;;;;;5011313;28;20604;-58
2023/08/25 06:19:02;;;;;;;28.17;25.47;;;20.00;99.90;;;;;;5018366;28;20506;-57
2023/08/25 06:21:30;;;;;;;31.77;28.73;;;20.10;99.90;;;;;;5021007;28;20943;-59
2023/08/25 06:23:58;;;;;;;28.17;25.37;;;20.10;99.90;;;;;;5008356;28;20925;-57
2023/08/25 06:26:26;;;;;;;27.43;24.77;;;20.00;99.90;;;;;;5020406;28;21111;-56
2023/08/25 06:28:56;;;;;;;29.20;26.33;;;20.10;99.90;;;;;;5018745;28;20518;-56
2023/08/25 06:31:24;;;;;;;25.33;22.93;;;20.10;99.90;;;;;;5012004;28;20577;-56
2023/08/25 06:33:54;;;;;;;30.97;27.87;;;20.20;99.90;;;;;;5013604;28;20567;-57
2023/08/25 06:36:22;;;;;;;30.30;27.40;;;20.20;99.90;;;;;;5017234;28;20487;-57
2023/08/25 06:38:49;;;;;;;27.50;25.10;;;20.20;99.90;;;;;;5017338;28;20474;-56
2023/08/25 06:41:24;;;;;;;28.47;25.70;;;20.20;99.90;;;;;;5018893;28;22419;-56
2023/08/25 06:43:53;;;;;;;29.03;26.30;;;20.30;99.90;;;;;;5004264;28;20518;-57
2023/08/25 06:46:21;;;;;;;26.73;24.03;;;20.30;99.90;;;;;;5017455;28;20616;-57
2023/08/25 06:48:50;;;;;;;29.03;26.20;;;20.30;99.90;;;;;;5019999;28;20505;-56
2023/08/25 06:51:19;;;;;;;27.43;24.83;;;20.30;99.90;;;;;;5020816;28;20543;-55
2023/08/25 06:53:47;;;;;;;29.97;27.17;;;20.40;99.90;;;;;;5021310;28;20555;-57
2023/08/25 06:56:15;;;;;;;26.00;23.50;;;20.40;99.90;;;;;;5020444;28;20584;-57
2023/08/25 06:58:43;;;;;;;27.37;24.67;;;20.40;99.90;;;;;;5026449;28;20498;-57
2023/08/25 07:01:11;;;;;;;27.30;24.90;;;20.50;99.90;;;;;;5025351;28;20708;-57
2023/08/25 07:03:40;;;;;;;26.53;24.03;;;20.40;99.90;;;;;;5007426;28;20590;-57
2023/08/25 07:06:08;;;;;;;27.40;24.80;;;20.50;99.90;;;;;;4998125;28;20570;-59
2023/08/25 07:08:37;;;;;;;25.67;23.37;;;20.50;99.90;;;;;;5018513;28;20559;-60
2023/08/25 07:11:07;;;;;;;24.37;22.13;;;20.50;99.90;;;;;;5014554;28;20478;-58
2023/08/25 07:13:35;;;;;;;25.80;23.50;;;20.60;99.90;;;;;;5023430;28;20487;-58
2023/08/25 07:16:04;;;;;;;25.93;23.60;;;20.60;99.90;;;;;;5020042;28;20891;-58
2023/08/25 07:18:32;;;;;;;26.17;23.77;;;20.60;99.90;;;;;;5025247;28;21222;-59
2023/08/25 07:21:04;;;;;;;22.97;20.77;;;20.60;99.90;;;;;;5020843;28;20564;-60
2023/08/25 07:23:32;;;;;;;22.23;20.10;;;20.70;99.90;;;;;;5023077;28;20515;-58
2023/08/25 07:26:01;;;;;;;22.80;20.80;;;20.70;99.90;;;;;;5016317;28;20659;-59
2023/08/25 07:28:29;;;;;;;22.50;20.50;;;20.70;99.90;;;;;;5025993;28;20531;-58
2023/08/25 07:30:59;;;;;;;23.73;21.47;;;20.70;99.90;;;;;;5017720;28;20492;-59
2023/08/25 07:33:27;;;;;;;23.97;21.87;;;20.80;99.90;;;;;;5020648;28;20574;-58
2023/08/25 07:35:55;;;;;;;24.80;22.30;;;20.80;99.90;;;;;;5020124;28;20487;-59
2023/08/25 07:38:23;;;;;;;22.27;20.13;;;20.80;99.90;;;;;;5006366;28;20577;-60
2023/08/25 07:40:51;;;;;;;23.83;21.40;;;20.80;99.90;;;;;;5000685;28;20471;-58
2023/08/25 07:43:21;;;;;;;21.93;20.03;;;20.80;99.90;;;;;;5023164;28;20490;-57
2023/08/25 07:45:49;;;;;;;22.27;20.30;;;20.90;99.90;;;;;;5018919;28;20582;-58
2023/08/25 07:48:17;;;;;;;21.10;19.23;;;20.90;99.90;;;;;;5026259;28;20521;-57
2023/08/25 07:50:45;;;;;;;21.53;19.73;;;21.00;99.90;;;;;;5020347;28;21000;-59
2023/08/25 07:53:14;;;;;;;22.20;20.10;;;21.10;99.90;;;;;;5025696;28;20569;-59
2023/08/25 07:55:42;;;;;;;21.40;19.50;;;21.20;99.90;;;;;;5026912;28;20494;-59
2023/08/25 07:58:10;;;;;;;21.33;19.40;;;21.30;99.90;;;;;;5021000;28;20536;-59
2023/08/25 08:00:40;;;;;;;21.90;20.00;;;21.50;99.90;;;;;;5024099;28;20475;-57
2023/08/25 08:03:09;;;;;;;20.17;18.37;;;21.60;99.90;;;;;;5020473;28;20490;-57
2023/08/25 08:05:38;;;;;;;20.50;18.60;;;21.60;99.90;;;;;;5024877;28;20506;-58
2023/08/25 08:08:06;;;;;;;18.33;16.63;;;21.60;99.90;;;;;;5028270;28;20470;-58
2023/08/25 08:10:34;;;;;;;20.00;18.20;;;21.70;99.90;;;;;;5019308;28;20641;-57
2023/08/25 08:13:03;;;;;;;18.97;17.07;;;21.70;99.90;;;;;;5012413;28;20474;-58
2023/08/25 08:15:31;;;;;;;19.30;17.60;;;21.80;99.90;;;;;;5022408;28;20547;-57
2023/08/25 08:18:00;;;;;;;17.50;15.77;;;21.90;99.90;;;;;;5018675;28;20590;-57
2023/08/25 08:20:28;;;;;;;19.23;17.43;;;22.00;99.90;;;;;;5020090;28;20467;-58
2023/08/25 08:22:56;;;;;;;21.07;19.17;;;22.00;99.90;;;;;;5012873;28;20821;-58
2023/08/25 08:25:25;;;;;;;23.53;21.33;;;22.10;99.90;;;;;;5026036;28;20564;-59
2023/08/25 08:27:53;;;;;;;20.33;18.53;;;22.10;99.90;;;;;;5028017;28;20471;-59
2023/08/25 08:30:22;;;;;;;21.07;19.20;;;22.00;99.90;;;;;;5021085;28;20526;-59
2023/08/25 08:32:50;;;;;;;19.47;17.67;;;22.00;99.90;;;;;;5028137;28;21071;-59
2023/08/25 08:35:20;;;;;;;20.20;18.40;;;22.00;99.90;;;;;;5021750;28;20517;-58
2023/08/25 08:37:47;;;;;;;21.90;19.90;;;22.00;99.90;;;;;;5018126;28;20473;-57
2023/08/25 08:40:16;;;;;;;21.40;19.13;;;22.00;99.90;;;;;;5026087;28;20466;-57
2023/08/25 08:42:46;;;;;;;19.20;17.50;;;21.90;99.90;;;;;;5020795;28;20556;-58
2023/08/25 08:45:16;;;;;;;19.13;17.33;;;21.90;99.90;;;;;;5015718;28;20483;-58
2023/08/25 08:47:44;;;;;;;20.50;18.60;;;22.00;99.90;;;;;;5017633;28;20504;-57
2023/08/25 08:50:12;;;;;;;19.17;17.50;;;22.00;99.90;;;;;;5024645;28;20515;-58
2023/08/25 08:52:41;;;;;;;18.50;16.80;;;22.00;99.90;;;;;;5024905;28;20602;-58
2023/08/25 08:55:10;;;;;;;18.83;17.13;;;22.00;99.90;;;;;;5017151;28;20507;-58
2023/08/25 08:57:38;;;;;;;19.47;17.60;;;22.10;99.90;;;;;;5020758;28;20596;-58
2023/08/25 09:00:10;;;;;;;20.67;18.87;;;22.10;99.90;;;;;;5022123;28;20567;-57
2023/08/25 09:02:38;;;;;;;20.87;18.87;;;22.10;99.90;;;;;;5017288;28;20955;-58
2023/08/25 09:05:07;;;;;;;19.20;17.47;;;22.20;99.90;;;;;;5010647;28;20498;-59
2023/08/25 09:07:38;;;;;;;18.87;17.27;;;22.20;99.90;;;;;;5023959;28;22109;-58
2023/08/25 09:10:10;;;;;;;21.07;19.20;;;22.30;99.90;;;;;;5019657;28;21336;-58
2023/08/25 09:12:38;;;;;;;16.10;14.70;;;22.40;99.90;;;;;;5026896;28;20866;-57
2023/08/25 09:15:08;;;;;;;20.47;18.67;;;22.40;99.90;;;;;;5019601;28;20578;-58
2023/08/25 09:17:37;;;;;;;18.63;16.93;;;22.50;99.90;;;;;;5024347;28;20471;-58
2023/08/25 09:20:08;;;;;;;17.30;15.57;;;22.50;99.90;;;;;;5023735;28;20471;-58
2023/08/25 09:22:36;;;;;;;18.47;16.77;;;22.50;99.90;;;;;;5022143;28;20564;-58
2023/08/25 09:25:04;;;;;;;18.53;16.60;;;22.50;99.90;;;;;;5017253;28;20502;-57
2023/08/25 09:27:33;;;;;;;17.37;15.87;;;22.40;99.90;;;;;;5019643;28;20489;-58
2023/08/25 09:30:03;;;;;;;18.43;17.00;;;22.40;99.90;;;;;;5006925;28;21050;-59
2023/08/25 09:32:32;;;;;;;17.50;15.90;;;22.40;99.90;;;;;;5023216;28;21173;-58
2023/08/25 09:35:11;;;;;;;17.03;15.33;;;22.40;99.90;;;;;;5020561;28;20644;-57
2023/08/25 09:37:41;;;;;;;16.83;15.20;;;22.30;99.90;;;;;;5022607;28;20562;-60
2023/08/25 09:40:12;;;;;;;17.90;16.13;;;22.40;99.90;;;;;;5015422;28;20578;-58
2023/08/25 09:42:41;;;;;;;17.97;16.57;;;22.30;99.90;;;;;;5020524;28;20551;-59
2023/08/25 09:45:11;;;;;;;17.13;15.47;;;22.30;99.90;;;;;;5018694;28;20514;-58
2023/08/25 09:47:41;;;;;;;16.67;15.20;;;22.30;99.90;;;;;;5014305;28;20471;-58
2023/08/25 09:50:13;;;;;;;17.93;16.13;;;22.30;99.90;;;;;;5016630;28;20566;-58
2023/08/25 09:52:45;;;;;;;18.80;17.20;;;22.30;99.90;;;;;;5018668;28;20494;-58
2023/08/25 09:55:14;;;;;;;18.27;16.70;;;22.30;99.90;;;;;;5023547;28;20894;-58
2023/08/25 09:57:45;;;;;;;17.93;16.43;;;22.40;99.90;;;;;;5016557;28;20877;-59
2023/08/25 10:00:14;;;;;;;16.10;14.60;;;22.40;99.90;;;;;;5025557;28;20477;-59
2023/08/25 10:02:44;;;;;;;17.03;15.53;;;22.50;99.90;;;;;;5016448;28;20941;-59
2023/08/25 10:05:13;;;;;;;17.20;15.80;;;22.50;99.90;;;;;;5021420;28;20944;-59
2023/08/25 10:07:43;;;;;;;18.00;16.30;;;22.50;99.90;;;;;;5021058;28;20479;-59
2023/08/25 10:10:12;;;;;;;17.20;15.50;;;22.50;99.90;;;;;;5009978;28;20478;-58
2023/08/25 10:12:43;;;;;;;16.50;15.00;;;22.50;99.90;;;;;;5020296;28;20467;-58
2023/08/25 10:15:15;;;;;;;14.27;13.07;;;22.40;99.90;;;;;;5014556;28;20589;-58
2023/08/25 10:17:45;;;;;;;17.13;15.63;;;22.40;99.90;;;;;;5024585;28;20466;-59
2023/08/25 10:20:14;;;;;;;16.73;15.03;;;22.40;99.90;;;;;;5023103;28;20978;-58
2023/08/25 10:22:47;;;;;;;15.53;14.13;;;22.40;99.90;;;;;;5013039;28;20567;-59
2023/08/25 10:25:18;;;;;;;14.20;12.93;;;22.40;99.90;;;;;;5013791;28;21055;-59
2023/08/25 10:27:49;;;;;;;15.17;13.97;;;22.40;99.90;;;;;;5014652;28;20478;-59
2023/08/25 10:30:17;;;;;;;13.73;12.60;;;22.40;99.90;;;;;;5019573;28;20486;-59
2023/08/25 10:32:49;;;;;;;14.77;13.37;;;22.50;99.90;;;;;;5020315;28;20554;-58
2023/08/25 10:35:37;;;;;;;15.97;14.50;;;22.50;99.90;;;;;;5019656;28;20495;-58
2023/08/25 10:38:05;;;;;;;17.57;16.03;;;22.50;99.90;;;;;;5010321;28;20885;-59
2023/08/25 10:40:41;;;;;;;14.70;13.43;;;22.50;99.90;;;;;;5004190;28;20558;-59
2023/08/25 10:43:11;;;;;;;14.23;13.07;;;22.40;99.90;;;;;;4999140;28;21151;-58
2023/08/25 10:45:39;;;;;;;15.70;14.30;;;22.40;99.90;;;;;;5015640;28;20903;-58
2023/08/25 10:48:07;;;;;;;15.10;13.80;;;22.50;99.90;;;;;;5006994;28;21219;-59
2023/08/25 10:50:36;;;;;;;17.10;15.40;;;22.50;99.90;;;;;;5020974;28;20592;-58
2023/08/25 10:53:04;;;;;;;16.30;14.70;;;22.40;99.90;;;;;;5020850;28;20471;-59
2023/08/25 10:55:33;;;;;;;14.90;13.43;;;22.40;99.90;;;;;;5016440;28;20582;-58
2023/08/25 10:58:03;;;;;;;15.20;13.73;;;22.40;99.90;;;;;;5001858;28;20474;-57
2023/08/25 11:00:34;;;;;;;16.67;15.17;;;22.40;99.90;;;;;;5008613;28;20475;-59
2023/08/25 11:03:03;;;;;;;13.33;12.13;;;22.40;99.90;;;;;;5000374;28;20562;-58
2023/08/25 11:05:43;;;;;;;14.00;12.63;;;22.40;99.90;;;;;;5017526;28;20505;-58
2023/08/25 11:08:25;;;;;;;13.20;12.00;;;22.40;99.90;;;;;;5013148;28;20478;-58
2023/08/25 11:11:12;;;;;;;15.43;13.93;;;22.40;99.90;;;;;;5011338;28;20488;-59
2023/08/25 11:13:42;;;;;;;14.43;13.00;;;22.50;99.90;;;;;;5016230;28;20490;-59
2023/08/25 11:16:13;;;;;;;14.80;13.37;;;22.50;99.90;;;;;;5019191;28;20514;-58
2023/08/25 11:18:42;;;;;;;17.10;15.50;;;22.50;99.90;;;;;;5017429;28;20475;-58
2023/08/25 11:21:10;;;;;;;17.40;15.73;;;22.50;99.90;;;;;;5019174;28;20462;-59
2023/08/25 11:23:40;;;;;;;14.60;13.30;;;22.50;99.90;;;;;;5011181;28;20503;-59
2023/08/25 11:26:09;;;;;;;15.90;14.20;;;22.50;99.90;;;;;;5003175;28;20502;-58
2023/08/25 11:28:37;;;;;;;16.43;14.30;;;22.50;99.90;;;;;;5003569;28;21194;-57
2023/08/25 11:31:07;;;;;;;15.63;14.20;;;22.50;99.90;;;;;;5006692;28;20625;-58
2023/08/25 11:33:36;;;;;;;15.27;13.90;;;22.50;99.90;;;;;;5019317;28;20489;-58
2023/08/25 11:36:05;;;;;;;15.33;14.00;;;22.40;99.90;;;;;;5017304;28;20586;-58
2023/08/25 11:38:33;;;;;;;16.90;15.30;;;22.40;99.90;;;;;;5002568;28;20470;-59
2023/08/25 11:41:01;;;;;;;12.67;11.67;;;22.40;99.90;;;;;;5013162;28;20602;-58
2023/08/25 11:43:32;;;;;;;16.03;14.53;;;22.30;99.90;;;;;;5009809;28;20683;-58
2023/08/25 11:46:00;;;;;;;16.17;14.60;;;22.30;99.90;;;;;;4996880;28;20591;-58
2023/08/25 11:48:28;;;;;;;15.23;13.90;;;22.30;99.90;;;;;;5006296;28;21064;-58
2023/08/25 11:50:58;;;;;;;13.47;12.27;;;22.30;99.90;;;;;;5011770;28;20539;-58
2023/08/25 11:53:26;;;;;;;15.50;13.90;;;22.30;99.90;;;;;;5016405;28;20878;-58
2023/08/25 11:56:14;;;;;;;15.70;14.30;;;22.20;99.90;;;;;;5009734;28;20490;-59
2023/08/25 11:58:42;;;;;;;14.77;13.43;;;22.20;99.90;;;;;;5012688;28;20562;-58
2023/08/25 12:01:12;;;;;;;14.23;12.90;;;22.20;99.90;;;;;;5012252;28;20470;-58
2023/08/25 12:03:42;;;;;;;14.50;13.33;;;22.10;99.90;;;;;;5006013;28;20499;-57
2023/08/25 12:06:13;;;;;;;12.73;11.60;;;22.10;99.90;;;;;;5021681;28;20505;-59
2023/08/25 12:08:42;;;;;;;13.67;12.60;;;22.10;99.90;;;;;;5027655;28;20463;-58
2023/08/25 12:11:11;;;;;;;13.57;12.37;;;22.10;99.90;;;;;;5018010;28;20471;-58
2023/08/25 12:13:42;;;;;;;15.63;14.43;;;22.00;99.90;;;;;;5021166;28;20487;-59
2023/08/25 12:16:13;;;;;;;17.00;15.23;;;22.00;99.90;;;;;;5016726;28;20517;-58
2023/08/25 12:18:42;;;;;;;16.10;14.80;;;22.00;99.90;;;;;;5019389;28;20851;-59
2023/08/25 12:21:12;;;;;;;16.50;15.20;;;22.00;99.90;;;;;;5015528;28;20529;-59
2023/08/25 12:23:43;;;;;;;18.70;17.00;;;21.90;99.90;;;;;;5018999;28;20491;-59
2023/08/25 12:26:12;;;;;;;17.87;16.23;;;21.90;99.90;;;;;;5019706;28;20498;-58
2023/08/25 12:28:40;;;;;;;20.80;18.80;;;21.80;99.90;;;;;;5013513;28;21059;-59
2023/08/25 12:31:08;;;;;;;21.00;19.30;;;21.80;99.90;;;;;;5019744;28;20980;-58
2023/08/25 12:33:37;;;;;;;21.73;19.73;;;21.80;99.90;;;;;;5014417;28;20499;-59
2023/08/25 12:36:05;;;;;;;20.57;18.80;;;21.70;99.90;;;;;;5017123;28;20567;-59
2023/08/25 12:38:35;;;;;;;19.57;17.87;;;21.70;99.90;;;;;;5008954;28;20554;-58